createdAt,value
2022-10-17T00:00:35.611Z,5.37
2022-10-17T00:03:02.006Z,5.43
2022-10-17T00:05:28.450Z,4.60
2022-10-17T00:07:55.641Z,5.27
2022-10-17T00:10:22.666Z,5.17
2022-10-17T00:12:51.181Z,4.87
2022-10-17T00:15:19.744Z,5.27
2022-10-17T00:17:46.146Z,5.03
2022-10-17T00:20:13.084Z,5.20
2022-10-17T00:22:39.712Z,4.70
2022-10-17T00:25:06.453Z,4.87
2022-10-17T00:27:40.903Z,4.63
2022-10-17T00:30:11.899Z,4.03
2022-10-17T00:32:38.444Z,4.67
2022-10-17T00:35:05.063Z,4.03
2022-10-17T00:37:32.063Z,3.60
2022-10-17T00:39:58.877Z,3.77
2022-10-17T00:42:26.858Z,4.00
2022-10-17T00:45:22.029Z,3.23
2022-10-17T00:47:53.635Z,3.50
2022-10-17T00:50:20.712Z,4.03
2022-10-17T00:52:48.813Z,3.43
2022-10-17T00:55:23.398Z,4.03
2022-10-17T00:57:50.707Z,3.50
2022-10-17T01:00:18.779Z,3.87
2022-10-17T01:02:46.014Z,3.63
2022-10-17T01:05:13.737Z,3.07
2022-10-17T01:07:42.153Z,3.47
2022-10-17T01:10:09.632Z,3.97
2022-10-17T01:12:52.941Z,3.93
2022-10-17T01:15:49.238Z,3.30
2022-10-17T01:18:43.330Z,3.87
2022-10-17T01:21:33.006Z,3.57
2022-10-17T01:24:33.993Z,3.40
2022-10-17T01:27:24.639Z,3.40
2022-10-17T01:29:59.976Z,2.97
2022-10-17T01:32:46.449Z,2.87
2022-10-17T01:35:37.377Z,3.50
2022-10-17T01:38:19.005Z,3.13
2022-10-17T01:40:51.239Z,3.30
2022-10-17T01:43:39.621Z,2.77
2022-10-17T01:46:21.785Z,2.90
2022-10-17T01:48:48.179Z,2.40
2022-10-17T01:51:23.880Z,2.30
2022-10-17T01:53:56.787Z,2.20
2022-10-17T01:56:27.262Z,2.10
2022-10-17T01:58:58.506Z,2.30
2022-10-17T02:01:27.689Z,1.90
2022-10-17T02:03:56.119Z,2.23
2022-10-17T02:06:22.479Z,1.93
2022-10-17T02:08:50.761Z,2.00
2022-10-17T02:11:22.358Z,1.73
2022-10-17T02:14:18.277Z,1.70
2022-10-17T02:17:03.366Z,1.73
2022-10-17T02:19:38.464Z,2.00
2022-10-17T02:22:13.960Z,1.87
2022-10-17T02:24:51.690Z,1.57
2022-10-17T02:27:33.776Z,1.70
2022-10-17T02:30:13.244Z,1.60
2022-10-17T02:33:02.028Z,1.57
2022-10-17T02:35:32.763Z,2.03
2022-10-17T02:38:00.468Z,2.07
2022-10-17T02:40:30.595Z,1.80
2022-10-17T02:42:59.233Z,2.10
2022-10-17T02:45:28.041Z,3.07
2022-10-17T02:48:00.695Z,2.00
2022-10-17T02:50:48.279Z,2.20
2022-10-17T02:53:21.184Z,2.63
2022-10-17T02:55:58.947Z,1.70
2022-10-17T02:58:30.637Z,1.90
2022-10-17T03:00:58.198Z,2.10
2022-10-17T03:03:30.234Z,2.53
2022-10-17T03:05:56.783Z,1.90
2022-10-17T03:08:23.872Z,2.50
2022-10-17T03:10:51.383Z,1.90
2022-10-17T03:13:18.818Z,1.80
2022-10-17T03:15:45.407Z,2.20
2022-10-17T03:18:11.889Z,1.70
2022-10-17T03:20:38.276Z,2.17
2022-10-17T03:23:04.827Z,2.40
2022-10-17T03:25:31.265Z,2.07
2022-10-17T03:28:00.405Z,2.10
2022-10-17T03:30:27.520Z,2.67
2022-10-17T03:32:53.864Z,2.47
2022-10-17T03:35:20.239Z,3.10
2022-10-17T03:37:46.629Z,1.77
2022-10-17T03:40:13.060Z,2.00
2022-10-17T03:42:39.545Z,2.30
2022-10-17T03:45:06.299Z,2.17
2022-10-17T03:47:32.985Z,2.17
2022-10-17T03:49:59.537Z,1.63
2022-10-17T03:52:26.203Z,1.50
2022-10-17T03:54:52.648Z,1.60
2022-10-17T03:57:19.301Z,1.97
2022-10-17T03:59:45.854Z,1.77
2022-10-17T04:02:12.329Z,1.73
2022-10-17T04:04:38.852Z,1.13
2022-10-17T04:07:05.318Z,1.33
2022-10-17T04:09:31.950Z,2.07
2022-10-17T04:11:58.654Z,1.80
2022-10-17T04:14:25.308Z,1.90
2022-10-17T04:16:51.819Z,1.60
2022-10-17T04:19:20.418Z,1.50
2022-10-17T04:21:47.186Z,1.40
2022-10-17T04:24:20.450Z,1.60
2022-10-17T04:26:50.971Z,2.10
2022-10-17T04:29:22.003Z,1.70
2022-10-17T04:31:52.256Z,1.87
2022-10-17T04:34:21.416Z,1.60
2022-10-17T04:36:48.007Z,1.87
2022-10-17T04:41:41.646Z,1.70
2022-10-17T04:44:08.033Z,1.73
2022-10-17T04:46:34.939Z,1.80
2022-10-17T04:49:04.412Z,2.00
2022-10-17T04:51:30.844Z,1.93
2022-10-17T04:53:57.230Z,1.60
2022-10-17T04:56:24.607Z,1.97
2022-10-17T04:58:51.100Z,1.80
2022-10-17T05:01:20.062Z,1.80
2022-10-17T05:03:47.476Z,1.80
2022-10-17T05:06:21.156Z,1.80
2022-10-17T05:08:48.295Z,1.97
2022-10-17T05:11:21.147Z,2.50
2022-10-17T05:13:56.432Z,2.43
2022-10-17T05:16:24.184Z,1.80
2022-10-17T05:18:56.470Z,2.80
2022-10-17T05:21:25.323Z,1.80
2022-10-17T05:23:52.250Z,2.13
2022-10-17T05:26:19.841Z,2.20
2022-10-17T05:28:46.540Z,2.20
2022-10-17T05:31:13.396Z,2.10
2022-10-17T05:33:40.838Z,2.10
2022-10-17T05:36:07.783Z,2.20
2022-10-17T05:38:34.498Z,2.20
2022-10-17T05:41:02.374Z,2.73
2022-10-17T05:43:29.656Z,2.23
2022-10-17T05:45:56.248Z,2.57
2022-10-17T05:48:23.528Z,2.10
2022-10-17T05:50:50.066Z,2.40
2022-10-17T05:53:17.304Z,2.40
2022-10-17T05:55:43.672Z,2.63
2022-10-17T05:58:17.610Z,2.50
2022-10-17T06:00:48.751Z,2.43
2022-10-17T06:03:15.172Z,2.40
2022-10-17T06:05:41.691Z,2.40
2022-10-17T06:08:08.055Z,1.93
2022-10-17T06:10:34.411Z,2.23
2022-10-17T06:13:00.832Z,2.13
2022-10-17T06:15:27.232Z,2.47
2022-10-17T06:17:53.568Z,2.33
2022-10-17T06:20:20.039Z,2.33
2022-10-17T06:22:46.446Z,2.50
2022-10-17T06:25:12.920Z,2.50
2022-10-17T06:27:39.378Z,2.20
2022-10-17T06:30:06.377Z,2.13
2022-10-17T06:32:32.932Z,2.20
2022-10-17T06:34:59.409Z,2.50
2022-10-17T06:37:26.202Z,2.43
2022-10-17T06:39:52.890Z,2.27
2022-10-17T06:42:19.303Z,2.33
2022-10-17T06:44:45.849Z,2.20
2022-10-17T06:47:16.534Z,2.10
2022-10-17T06:49:45.914Z,2.33
2022-10-17T06:52:12.555Z,2.10
2022-10-17T06:54:39.167Z,2.20
2022-10-17T06:57:05.914Z,2.07
2022-10-17T06:59:32.650Z,2.20
2022-10-17T07:02:01.087Z,2.00
2022-10-17T07:04:28.010Z,2.03
2022-10-17T07:06:54.804Z,2.53
2022-10-17T07:09:22.838Z,2.63
2022-10-17T07:11:49.440Z,2.13
2022-10-17T07:14:15.955Z,2.53
2022-10-17T07:16:42.486Z,2.10
2022-10-17T07:19:08.936Z,2.20
2022-10-17T07:21:38.255Z,2.00
2022-10-17T07:24:07.140Z,2.47
2022-10-17T07:26:33.855Z,2.17
2022-10-17T07:29:00.319Z,2.17
2022-10-17T07:31:26.782Z,1.90
2022-10-17T07:33:53.398Z,2.80
2022-10-17T07:36:19.860Z,2.37
2022-10-17T07:39:01.055Z,2.17
2022-10-17T07:42:02.259Z,2.30
2022-10-17T07:44:33.988Z,2.37
2022-10-17T07:50:33.324Z,2.23
2022-10-17T07:53:21.244Z,2.20
2022-10-17T08:03:31.081Z,1.67
2022-10-17T08:28:24.996Z,1.37
2022-10-17T08:31:19.391Z,1.27
2022-10-17T08:39:45.348Z,1.40
2022-10-17T08:46:27.639Z,1.43
2022-10-17T08:52:26.643Z,1.40
2022-10-17T08:55:49.429Z,1.50
2022-10-17T09:02:03.065Z,1.50
2022-10-17T09:04:35.378Z,1.93
2022-10-17T09:07:22.346Z,2.10
2022-10-17T09:10:18.651Z,1.60
2022-10-17T09:13:22.792Z,1.63
2022-10-17T09:16:02.854Z,1.47
2022-10-17T09:18:33.443Z,1.47
2022-10-17T09:21:21.518Z,1.27
2022-10-17T09:24:03.797Z,1.40
2022-10-17T09:26:38.437Z,1.40
2022-10-17T09:29:22.453Z,1.37
2022-10-17T09:32:17.657Z,1.60
2022-10-17T09:34:44.153Z,1.40
2022-10-17T09:37:16.031Z,1.27
2022-10-17T09:39:43.893Z,1.40
2022-10-17T09:42:15.405Z,1.30
2022-10-17T09:45:11.595Z,1.33
2022-10-17T09:47:45.730Z,1.40
2022-10-17T09:50:19.656Z,1.20
2022-10-17T09:52:48.563Z,1.37
2022-10-17T09:55:20.404Z,1.33
2022-10-17T09:58:02.113Z,1.50
2022-10-17T10:00:43.750Z,1.20
2022-10-17T10:03:13.106Z,1.83
2022-10-17T10:05:40.574Z,1.70
2022-10-17T10:08:14.958Z,1.30
2022-10-17T10:10:43.208Z,1.63
2022-10-17T10:13:15.763Z,1.60
2022-10-17T10:15:47.284Z,1.40
2022-10-17T10:18:26.217Z,1.57
2022-10-17T10:21:06.965Z,1.60
2022-10-17T10:23:34.588Z,1.63
2022-10-17T10:26:18.908Z,1.50
2022-10-17T10:28:57.029Z,1.67
2022-10-17T10:31:35.596Z,1.87
2022-10-17T10:34:14.545Z,1.80
2022-10-17T10:36:48.342Z,1.60
2022-10-17T10:39:36.271Z,1.50
2022-10-17T10:42:05.826Z,1.50
2022-10-17T10:44:33.835Z,1.53
2022-10-17T10:47:19.171Z,1.77
2022-10-17T10:49:45.995Z,1.40
2022-10-17T10:52:22.446Z,1.60
2022-10-17T10:55:02.862Z,1.57
2022-10-17T10:57:33.273Z,1.63
2022-10-17T11:00:13.324Z,2.07
2022-10-17T11:07:13.106Z,1.60
2022-10-17T11:14:15.187Z,2.07
2022-10-17T11:25:56.813Z,1.27
2022-10-17T11:28:58.782Z,1.50
2022-10-17T11:45:31.393Z,1.50
2022-10-17T11:52:02.607Z,1.20
2022-10-17T11:55:19.220Z,1.07
2022-10-17T11:58:41.388Z,1.20
2022-10-17T12:01:38.057Z,1.43
2022-10-17T12:09:23.992Z,1.37
2022-10-17T12:23:10.263Z,1.20
2022-10-17T12:25:47.849Z,1.23
2022-10-17T12:28:43.556Z,1.40
2022-10-17T12:31:23.197Z,0.97
2022-10-17T12:33:55.525Z,1.13
2022-10-17T12:36:21.903Z,0.90
2022-10-17T12:38:50.247Z,1.20
2022-10-17T12:41:37.823Z,1.60
2022-10-17T12:44:13.626Z,1.17
2022-10-17T12:46:49.742Z,0.83
2022-10-17T12:49:43.503Z,1.47
2022-10-17T12:52:25.329Z,1.20
2022-10-17T12:55:13.506Z,1.53
2022-10-17T12:58:01.546Z,1.43
2022-10-17T13:01:11.778Z,1.00
2022-10-17T13:03:45.058Z,1.40
2022-10-17T13:06:19.477Z,1.53
2022-10-17T13:08:53.630Z,1.50
2022-10-17T13:11:25.122Z,1.27
2022-10-17T13:13:55.705Z,1.27
2022-10-17T13:16:32.615Z,1.10
2022-10-17T13:19:00.836Z,1.27
2022-10-17T13:21:29.538Z,1.67
2022-10-17T13:24:15.794Z,1.33
2022-10-17T13:35:14.898Z,1.50
2022-10-17T13:53:19.264Z,1.50
2022-10-17T13:56:35.276Z,1.40
2022-10-17T14:11:31.031Z,1.57
2022-10-17T14:15:05.245Z,1.60
2022-10-17T14:19:08.495Z,1.30
2022-10-17T14:24:26.811Z,1.57
2022-10-17T14:26:56.232Z,1.67
2022-10-17T14:29:35.985Z,1.40
2022-10-17T14:32:10.519Z,1.27
2022-10-17T14:34:40.534Z,1.10
2022-10-17T14:37:13.067Z,1.27
2022-10-17T14:39:39.887Z,1.50
2022-10-17T14:42:06.432Z,1.20
2022-10-17T14:44:35.418Z,1.20
2022-10-17T14:47:30.861Z,1.40
2022-10-17T14:50:07.452Z,1.20
2022-10-17T15:01:22.905Z,1.53
2022-10-17T15:04:23.895Z,1.40
2022-10-17T15:08:06.913Z,1.37
2022-10-17T15:10:46.044Z,1.20
2022-10-17T15:13:54.236Z,1.43
2022-10-17T15:23:59.271Z,1.30
2022-10-17T15:27:09.829Z,1.20
2022-10-17T15:52:34.229Z,1.30
2022-10-17T15:55:04.164Z,1.63
2022-10-17T15:57:35.899Z,1.40
2022-10-17T16:00:02.484Z,1.43
2022-10-17T16:02:28.925Z,1.60
2022-10-17T16:04:55.445Z,1.93
2022-10-17T16:07:22.707Z,1.50
2022-10-17T16:09:49.265Z,1.70
2022-10-17T16:12:19.219Z,1.60
2022-10-17T16:14:45.719Z,1.50
2022-10-17T16:17:16.907Z,2.00
2022-10-17T16:19:43.353Z,2.33
2022-10-17T16:22:32.513Z,2.03
2022-10-17T16:25:07.427Z,1.93
2022-10-17T16:28:06.883Z,2.30
2022-10-17T16:43:53.230Z,2.00
2022-10-17T16:47:20.952Z,2.40
2022-10-17T16:50:26.386Z,2.33
2022-10-17T16:53:11.973Z,2.37
2022-10-17T17:00:20.130Z,2.17
2022-10-17T17:07:50.574Z,2.60
2022-10-17T17:10:30.546Z,2.30
2022-10-17T17:13:35.817Z,2.30
2022-10-17T17:33:48.501Z,2.47
2022-10-17T17:36:51.824Z,2.10
2022-10-17T17:39:22.186Z,2.80
2022-10-17T17:42:06.051Z,2.43
2022-10-17T17:44:34.525Z,2.60
2022-10-17T17:47:00.974Z,2.40
2022-10-17T17:49:27.353Z,3.27
2022-10-17T17:51:53.930Z,3.50
2022-10-17T17:54:20.353Z,3.53
2022-10-17T17:56:46.798Z,3.57
2022-10-17T17:59:13.541Z,4.20
2022-10-17T18:01:41.643Z,3.37
2022-10-17T18:04:09.122Z,3.67
2022-10-17T18:06:37.546Z,3.60
2022-10-17T18:09:05.390Z,3.47
2022-10-17T18:11:33.520Z,3.70
2022-10-17T18:14:05.918Z,3.63
2022-10-17T18:16:33.885Z,3.80
2022-10-17T18:19:06.648Z,4.27
2022-10-17T18:21:34.188Z,4.80
2022-10-17T18:24:00.838Z,3.97
2022-10-17T18:26:27.690Z,4.63
2022-10-17T18:28:54.303Z,4.60
2022-10-17T18:31:28.860Z,4.40
2022-10-17T18:33:57.187Z,4.40
2022-10-17T18:36:25.956Z,3.40
2022-10-17T18:38:53.266Z,3.20
2022-10-17T18:41:23.554Z,3.17
2022-10-17T18:43:51.270Z,3.27
2022-10-17T18:46:28.911Z,3.30
2022-10-17T18:48:55.491Z,3.20
2022-10-17T18:51:24.074Z,3.20
2022-10-17T18:53:53.540Z,3.00
2022-10-17T18:56:21.679Z,3.53
2022-10-17T18:58:48.053Z,2.90
2022-10-17T19:01:21.327Z,3.53
2022-10-17T19:03:49.956Z,3.30
2022-10-17T19:06:20.768Z,3.10
2022-10-17T19:08:48.067Z,3.33
2022-10-17T19:11:24.765Z,3.37
2022-10-17T19:13:51.957Z,3.30
2022-10-17T19:16:25.773Z,2.83
2022-10-17T19:18:58.626Z,3.10
2022-10-17T19:21:25.397Z,3.77
2022-10-17T19:23:54.290Z,3.30
2022-10-17T19:26:21.922Z,3.67
2022-10-17T19:28:48.697Z,3.43
2022-10-17T19:31:17.985Z,4.20
2022-10-17T19:33:44.897Z,3.67
2022-10-17T19:36:12.717Z,3.70
2022-10-17T19:38:39.738Z,3.97
2022-10-17T19:41:11.503Z,3.63
2022-10-17T19:43:39.765Z,3.30
2022-10-17T19:46:08.871Z,3.87
2022-10-17T19:48:36.788Z,3.37
2022-10-17T19:51:08.426Z,3.00
2022-10-17T19:53:35.068Z,3.67
2022-10-17T19:56:03.239Z,3.50
2022-10-17T19:58:29.877Z,3.73
2022-10-17T20:01:00.896Z,4.10
2022-10-17T20:03:28.830Z,3.50
2022-10-17T20:05:55.859Z,3.43
2022-10-17T20:08:22.490Z,3.67
2022-10-17T20:10:48.964Z,4.40
2022-10-17T20:13:15.378Z,3.57
2022-10-17T20:15:41.771Z,3.23
2022-10-17T20:18:08.939Z,3.27
2022-10-17T20:20:35.630Z,3.10
2022-10-17T20:23:03.009Z,3.97
2022-10-17T20:25:29.523Z,2.60
2022-10-17T20:27:55.956Z,3.00
2022-10-17T20:30:22.478Z,2.73
2022-10-17T20:32:48.832Z,3.17
2022-10-17T20:35:15.253Z,2.50
2022-10-17T20:37:42.770Z,3.57
2022-10-17T20:40:34.078Z,3.07
2022-10-17T20:42:56.178Z,3.00
2022-10-17T20:45:37.308Z,2.80
2022-10-17T20:54:58.854Z,2.73
2022-10-17T20:57:38.526Z,2.60
2022-10-17T21:00:16.531Z,2.87
2022-10-17T21:05:30.165Z,2.97
2022-10-17T21:08:08.112Z,2.90
2022-10-17T21:10:44.652Z,2.83
2022-10-17T21:18:57.515Z,3.40
2022-10-17T21:21:42.109Z,3.83
2022-10-17T21:24:19.980Z,3.10
2022-10-17T21:27:02.214Z,3.17
2022-10-17T21:29:35.517Z,3.73
2022-10-17T21:33:14.546Z,3.37
2022-10-17T21:49:29.802Z,2.93
2022-10-17T21:51:56.245Z,3.73
2022-10-17T21:54:23.484Z,3.77
2022-10-17T21:56:50.571Z,3.00
2022-10-17T21:59:16.954Z,2.83
2022-10-17T22:01:45.219Z,3.27
2022-10-17T22:04:16.711Z,3.47
2022-10-17T22:06:45.100Z,2.70
2022-10-17T22:09:24.428Z,3.37
2022-10-17T22:11:53.160Z,2.80
2022-10-17T22:14:21.196Z,3.53
2022-10-17T22:16:48.935Z,2.97
2022-10-17T22:19:26.205Z,3.53
2022-10-17T22:21:53.468Z,3.27
2022-10-17T22:26:48.442Z,3.03
2022-10-17T22:29:15.376Z,3.50
2022-10-17T22:31:41.788Z,3.60
2022-10-17T22:34:08.326Z,3.70
2022-10-17T22:36:35.378Z,3.00
2022-10-17T22:39:02.141Z,3.13
2022-10-17T22:41:28.742Z,3.37
2022-10-17T22:43:55.161Z,3.37
2022-10-17T22:46:21.545Z,3.30
2022-10-17T22:48:47.973Z,4.00
2022-10-17T22:51:14.475Z,3.07
2022-10-17T22:53:41.062Z,3.27
2022-10-17T22:56:13.235Z,3.13
2022-10-17T22:58:39.874Z,3.20
2022-10-17T23:01:07.813Z,2.80
2022-10-17T23:03:34.923Z,3.40
2022-10-17T23:06:02.454Z,2.80
2022-10-17T23:08:28.852Z,3.10
2022-10-17T23:10:55.316Z,3.03
2022-10-17T23:13:22.223Z,3.00
2022-10-17T23:15:52.727Z,2.80
2022-10-17T23:18:19.844Z,2.63
2022-10-17T23:20:46.407Z,2.37
2022-10-17T23:23:12.972Z,2.47
2022-10-17T23:25:40.270Z,2.53
2022-10-17T23:28:08.958Z,2.50
2022-10-17T23:30:36.635Z,2.63
2022-10-17T23:33:03.739Z,3.20
2022-10-17T23:35:30.129Z,3.00
2022-10-17T23:37:56.531Z,2.53
2022-10-17T23:40:22.916Z,2.60
2022-10-17T23:42:49.315Z,2.97
2022-10-17T23:45:15.846Z,2.57
2022-10-17T23:47:42.370Z,2.40
2022-10-17T23:50:08.997Z,2.27
2022-10-17T23:52:35.379Z,2.53
2022-10-17T23:55:01.735Z,2.67
2022-10-17T23:57:28.819Z,2.73
2022-10-17T23:59:55.445Z,2.37
